sensor_id;sensor_type;location;lat;lon;timestamp;P1;durP1;ratioP1;P2;durP2;ratioP2
2558;SDS011;1289;53.488;10.006;2024-02-14T00:00:33;5.87;;;5.27;;
2558;SDS011;1289;53.488;10.006;2024-02-14T00:02:59;5.50;;;5.10;;
2558;SDS011;1289;53.488;10.006;2024-02-14T00:05:26;6.57;;;5.70;;
2558;SDS011;1289;53.488;10.006;2024-02-14T00:07:54;6.13;;;5.50;;
2558;SDS011;1289;53.488;10.006;2024-02-14T00:10:20;8.20;;;5.37;;
2558;SDS011;1289;53.488;10.006;2024-02-14T00:12:47;7.40;;;6.03;;
2558;SDS011;1289;53.488;10.006;2024-02-14T00:15:14;5.87;;;5.03;;
2558;SDS011;1289;53.488;10.006;2024-02-14T00:17:42;5.83;;;5.30;;
2558;SDS011;1289;53.488;10.006;2024-02-14T00:20:09;6.53;;;5.20;;
2558;SDS011;1289;53.488;10.006;2024-02-14T00:22:37;5.27;;;4.80;;
2558;SDS011;1289;53.488;10.006;2024-02-14T00:25:05;5.47;;;5.07;;
2558;SDS011;1289;53.488;10.006;2024-02-14T00:27:32;5.87;;;5.37;;
2558;SDS011;1289;53.488;10.006;2024-02-14T00:29:58;6.70;;;5.20;;
2558;SDS011;1289;53.488;10.006;2024-02-14T00:32:25;5.67;;;5.17;;
2558;SDS011;1289;53.488;10.006;2024-02-14T00:34:53;6.00;;;5.50;;
2558;SDS011;1289;53.488;10.006;2024-02-14T00:37:19;6.13;;;5.53;;
2558;SDS011;1289;53.488;10.006;2024-02-14T00:39:46;5.47;;;4.97;;
2558;SDS011;1289;53.488;10.006;2024-02-14T00:42:13;6.10;;;5.50;;
2558;SDS011;1289;53.488;10.006;2024-02-14T00:44:40;5.97;;;5.20;;
2558;SDS011;1289;53.488;10.006;2024-02-14T00:47:07;5.53;;;5.00;;
2558;SDS011;1289;53.488;10.006;2024-02-14T00:49:34;5.10;;;4.63;;
2558;SDS011;1289;53.488;10.006;2024-02-14T00:52:02;7.00;;;4.80;;
2558;SDS011;1289;53.488;10.006;2024-02-14T00:54:29;11.80;;;4.80;;
2558;SDS011;1289;53.488;10.006;2024-02-14T00:56:56;7.27;;;4.97;;
2558;SDS011;1289;53.488;10.006;2024-02-14T00:59:29;6.63;;;4.43;;
2558;SDS011;1289;53.488;10.006;2024-02-14T01:01:56;5.90;;;5.40;;
2558;SDS011;1289;53.488;10.006;2024-02-14T01:04:23;7.40;;;4.73;;
2558;SDS011;1289;53.488;10.006;2024-02-14T01:06:49;5.20;;;4.70;;
2558;SDS011;1289;53.488;10.006;2024-02-14T01:09:18;7.10;;;5.23;;
2558;SDS011;1289;53.488;10.006;2024-02-14T01:11:44;6.00;;;4.87;;
2558;SDS011;1289;53.488;10.006;2024-02-14T01:14:11;5.47;;;5.07;;
2558;SDS011;1289;53.488;10.006;2024-02-14T01:16:41;6.00;;;5.40;;
2558;SDS011;1289;53.488;10.006;2024-02-14T01:19:08;5.20;;;4.77;;
2558;SDS011;1289;53.488;10.006;2024-02-14T01:21:35;5.40;;;5.00;;
2558;SDS011;1289;53.488;10.006;2024-02-14T01:24:02;8.67;;;5.10;;
2558;SDS011;1289;53.488;10.006;2024-02-14T01:26:31;5.37;;;4.87;;
2558;SDS011;1289;53.488;10.006;2024-02-14T01:28:58;5.40;;;4.90;;
2558;SDS011;1289;53.488;10.006;2024-02-14T01:31:26;6.07;;;5.47;;
2558;SDS011;1289;53.488;10.006;2024-02-14T01:33:52;4.70;;;4.30;;
2558;SDS011;1289;53.488;10.006;2024-02-14T01:36:19;5.17;;;4.63;;
2558;SDS011;1289;53.488;10.006;2024-02-14T01:38:46;6.07;;;5.57;;
2558;SDS011;1289;53.488;10.006;2024-02-14T01:41:13;6.10;;;5.47;;
2558;SDS011;1289;53.488;10.006;2024-02-14T01:43:41;6.50;;;5.30;;
2558;SDS011;1289;53.488;10.006;2024-02-14T01:46:07;6.47;;;5.33;;
2558;SDS011;1289;53.488;10.006;2024-02-14T01:48:34;5.87;;;5.40;;
2558;SDS011;1289;53.488;10.006;2024-02-14T01:51:01;5.70;;;5.20;;
2558;SDS011;1289;53.488;10.006;2024-02-14T01:53:29;5.87;;;5.37;;
2558;SDS011;1289;53.488;10.006;2024-02-14T01:55:56;8.90;;;5.50;;
2558;SDS011;1289;53.488;10.006;2024-02-14T01:58:23;6.00;;;5.50;;
2558;SDS011;1289;53.488;10.006;2024-02-14T02:00:52;5.57;;;5.10;;
2558;SDS011;1289;53.488;10.006;2024-02-14T02:03:22;6.47;;;5.83;;
2558;SDS011;1289;53.488;10.006;2024-02-14T02:05:49;6.23;;;5.40;;
2558;SDS011;1289;53.488;10.006;2024-02-14T02:08:16;8.83;;;5.70;;
2558;SDS011;1289;53.488;10.006;2024-02-14T02:10:43;11.50;;;5.80;;
2558;SDS011;1289;53.488;10.006;2024-02-14T02:13:09;5.57;;;4.90;;
2558;SDS011;1289;53.488;10.006;2024-02-14T02:15:36;6.00;;;5.50;;
2558;SDS011;1289;53.488;10.006;2024-02-14T02:18:05;6.33;;;5.73;;
2558;SDS011;1289;53.488;10.006;2024-02-14T02:20:32;7.20;;;5.73;;
2558;SDS011;1289;53.488;10.006;2024-02-14T02:23:00;6.47;;;5.93;;
2558;SDS011;1289;53.488;10.006;2024-02-14T02:25:27;6.80;;;6.20;;
2558;SDS011;1289;53.488;10.006;2024-02-14T02:27:54;6.50;;;6.00;;
2558;SDS011;1289;53.488;10.006;2024-02-14T02:30:21;6.07;;;5.57;;
2558;SDS011;1289;53.488;10.006;2024-02-14T02:32:49;6.90;;;6.00;;
2558;SDS011;1289;53.488;10.006;2024-02-14T02:35:16;6.47;;;5.80;;
2558;SDS011;1289;53.488;10.006;2024-02-14T02:37:45;6.13;;;5.60;;
2558;SDS011;1289;53.488;10.006;2024-02-14T02:40:14;6.67;;;6.17;;
2558;SDS011;1289;53.488;10.006;2024-02-14T02:42:42;8.57;;;6.80;;
2558;SDS011;1289;53.488;10.006;2024-02-14T02:45:10;11.90;;;6.30;;
2558;SDS011;1289;53.488;10.006;2024-02-14T02:47:37;8.17;;;6.47;;
2558;SDS011;1289;53.488;10.006;2024-02-14T02:50:04;9.60;;;6.37;;
2558;SDS011;1289;53.488;10.006;2024-02-14T02:52:33;7.33;;;6.47;;
2558;SDS011;1289;53.488;10.006;2024-02-14T02:54:59;9.57;;;6.47;;
2558;SDS011;1289;53.488;10.006;2024-02-14T02:57:28;7.40;;;6.70;;
2558;SDS011;1289;53.488;10.006;2024-02-14T02:59:57;6.27;;;5.77;;
2558;SDS011;1289;53.488;10.006;2024-02-14T03:02:24;6.47;;;5.97;;
2558;SDS011;1289;53.488;10.006;2024-02-14T03:04:51;7.30;;;6.20;;
2558;SDS011;1289;53.488;10.006;2024-02-14T03:07:18;7.10;;;6.50;;
2558;SDS011;1289;53.488;10.006;2024-02-14T03:09:45;6.80;;;6.20;;
2558;SDS011;1289;53.488;10.006;2024-02-14T03:12:12;6.80;;;6.20;;
2558;SDS011;1289;53.488;10.006;2024-02-14T03:14:42;8.27;;;6.40;;
2558;SDS011;1289;53.488;10.006;2024-02-14T03:17:09;9.80;;;6.30;;
2558;SDS011;1289;53.488;10.006;2024-02-14T03:19:36;7.63;;;6.93;;
2558;SDS011;1289;53.488;10.006;2024-02-14T03:22:04;8.43;;;6.50;;
2558;SDS011;1289;53.488;10.006;2024-02-14T03:24:33;6.83;;;6.23;;
2558;SDS011;1289;53.488;10.006;2024-02-14T03:27:02;8.20;;;7.00;;
2558;SDS011;1289;53.488;10.006;2024-02-14T03:29:30;8.07;;;7.07;;
2558;SDS011;1289;53.488;10.006;2024-02-14T03:31:58;7.80;;;7.10;;
2558;SDS011;1289;53.488;10.006;2024-02-14T03:34:29;7.27;;;6.57;;
2558;SDS011;1289;53.488;10.006;2024-02-14T03:36:58;10.90;;;7.20;;
2558;SDS011;1289;53.488;10.006;2024-02-14T03:39:25;7.50;;;6.80;;
2558;SDS011;1289;53.488;10.006;2024-02-14T03:41:51;8.30;;;7.50;;
2558;SDS011;1289;53.488;10.006;2024-02-14T03:44:19;7.30;;;6.70;;
2558;SDS011;1289;53.488;10.006;2024-02-14T03:46:46;8.63;;;7.50;;
2558;SDS011;1289;53.488;10.006;2024-02-14T03:49:14;7.67;;;6.60;;
2558;SDS011;1289;53.488;10.006;2024-02-14T03:51:42;6.60;;;6.00;;
2558;SDS011;1289;53.488;10.006;2024-02-14T03:54:08;7.00;;;6.30;;
2558;SDS011;1289;53.488;10.006;2024-02-14T03:56:36;7.10;;;6.50;;
2558;SDS011;1289;53.488;10.006;2024-02-14T03:59:03;6.87;;;6.27;;
2558;SDS011;1289;53.488;10.006;2024-02-14T04:01:32;7.47;;;6.77;;
2558;SDS011;1289;53.488;10.006;2024-02-14T04:03:59;7.83;;;7.13;;
2558;SDS011;1289;53.488;10.006;2024-02-14T04:06:27;8.20;;;7.40;;
2558;SDS011;1289;53.488;10.006;2024-02-14T04:08:56;8.03;;;7.17;;
2558;SDS011;1289;53.488;10.006;2024-02-14T04:11:24;9.43;;;6.60;;
2558;SDS011;1289;53.488;10.006;2024-02-14T04:13:50;6.93;;;6.23;;
2558;SDS011;1289;53.488;10.006;2024-02-14T04:16:18;8.63;;;6.47;;
2558;SDS011;1289;53.488;10.006;2024-02-14T04:18:45;8.33;;;7.63;;
2558;SDS011;1289;53.488;10.006;2024-02-14T04:21:12;7.50;;;6.80;;
2558;SDS011;1289;53.488;10.006;2024-02-14T04:23:40;7.07;;;6.37;;
2558;SDS011;1289;53.488;10.006;2024-02-14T04:26:07;8.33;;;6.60;;
2558;SDS011;1289;53.488;10.006;2024-02-14T04:28:34;6.77;;;6.07;;
2558;SDS011;1289;53.488;10.006;2024-02-14T04:31:00;10.23;;;6.93;;
2558;SDS011;1289;53.488;10.006;2024-02-14T04:33:27;6.97;;;6.47;;
2558;SDS011;1289;53.488;10.006;2024-02-14T04:35:53;7.90;;;7.10;;
2558;SDS011;1289;53.488;10.006;2024-02-14T04:38:20;7.53;;;6.77;;
2558;SDS011;1289;53.488;10.006;2024-02-14T04:40:48;7.67;;;6.87;;
2558;SDS011;1289;53.488;10.006;2024-02-14T04:43:15;8.50;;;7.40;;
2558;SDS011;1289;53.488;10.006;2024-02-14T04:45:41;8.47;;;7.70;;
2558;SDS011;1289;53.488;10.006;2024-02-14T04:48:08;7.60;;;7.00;;
2558;SDS011;1289;53.488;10.006;2024-02-14T04:50:35;7.80;;;7.10;;
2558;SDS011;1289;53.488;10.006;2024-02-14T04:53:02;8.83;;;7.03;;
2558;SDS011;1289;53.488;10.006;2024-02-14T04:55:29;9.00;;;7.50;;
2558;SDS011;1289;53.488;10.006;2024-02-14T04:57:56;8.67;;;7.77;;
2558;SDS011;1289;53.488;10.006;2024-02-14T05:00:23;10.33;;;7.77;;
2558;SDS011;1289;53.488;10.006;2024-02-14T05:02:50;8.20;;;7.40;;
2558;SDS011;1289;53.488;10.006;2024-02-14T05:05:16;8.00;;;7.20;;
2558;SDS011;1289;53.488;10.006;2024-02-14T05:07:43;8.43;;;7.40;;
2558;SDS011;1289;53.488;10.006;2024-02-14T05:10:09;8.07;;;6.90;;
2558;SDS011;1289;53.488;10.006;2024-02-14T05:12:36;9.37;;;7.23;;
2558;SDS011;1289;53.488;10.006;2024-02-14T05:15:04;9.83;;;7.90;;
2558;SDS011;1289;53.488;10.006;2024-02-14T05:17:31;11.80;;;7.30;;
2558;SDS011;1289;53.488;10.006;2024-02-14T05:19:58;8.53;;;7.73;;
2558;SDS011;1289;53.488;10.006;2024-02-14T05:22:24;7.70;;;7.00;;
2558;SDS011;1289;53.488;10.006;2024-02-14T05:24:51;8.87;;;7.97;;
2558;SDS011;1289;53.488;10.006;2024-02-14T05:27:18;8.57;;;7.67;;
2558;SDS011;1289;53.488;10.006;2024-02-14T05:29:45;7.20;;;6.60;;
2558;SDS011;1289;53.488;10.006;2024-02-14T05:32:13;9.30;;;8.30;;
2558;SDS011;1289;53.488;10.006;2024-02-14T05:34:39;8.63;;;7.87;;
2558;SDS011;1289;53.488;10.006;2024-02-14T05:37:06;10.43;;;8.10;;
2558;SDS011;1289;53.488;10.006;2024-02-14T05:39:33;10.60;;;8.03;;
2558;SDS011;1289;53.488;10.006;2024-02-14T05:42:00;10.93;;;7.43;;
2558;SDS011;1289;53.488;10.006;2024-02-14T05:44:26;8.37;;;7.63;;
2558;SDS011;1289;53.488;10.006;2024-02-14T05:46:55;9.50;;;7.60;;
2558;SDS011;1289;53.488;10.006;2024-02-14T05:49:23;8.40;;;7.60;;
2558;SDS011;1289;53.488;10.006;2024-02-14T05:51:49;8.57;;;7.60;;
2558;SDS011;1289;53.488;10.006;2024-02-14T05:54:17;10.10;;;7.53;;
2558;SDS011;1289;53.488;10.006;2024-02-14T05:56:43;8.77;;;7.87;;
2558;SDS011;1289;53.488;10.006;2024-02-14T05:59:10;8.93;;;8.03;;
2558;SDS011;1289;53.488;10.006;2024-02-14T06:01:36;7.70;;;7.10;;
2558;SDS011;1289;53.488;10.006;2024-02-14T06:04:03;8.60;;;7.80;;
2558;SDS011;1289;53.488;10.006;2024-02-14T06:06:31;8.73;;;7.87;;
2558;SDS011;1289;53.488;10.006;2024-02-14T06:08:58;8.50;;;7.80;;
2558;SDS011;1289;53.488;10.006;2024-02-14T06:11:25;8.33;;;7.53;;
2558;SDS011;1289;53.488;10.006;2024-02-14T06:13:51;8.53;;;7.63;;
2558;SDS011;1289;53.488;10.006;2024-02-14T06:16:18;8.13;;;7.30;;
2558;SDS011;1289;53.488;10.006;2024-02-14T06:18:44;8.30;;;7.50;;
2558;SDS011;1289;53.488;10.006;2024-02-14T06:21:11;7.57;;;6.73;;
2558;SDS011;1289;53.488;10.006;2024-02-14T06:23:39;9.20;;;7.90;;
2558;SDS011;1289;53.488;10.006;2024-02-14T06:26:06;8.90;;;7.13;;
2558;SDS011;1289;53.488;10.006;2024-02-14T06:28:33;9.63;;;8.00;;
2558;SDS011;1289;53.488;10.006;2024-02-14T06:31:00;7.70;;;7.00;;
2558;SDS011;1289;53.488;10.006;2024-02-14T06:33:26;9.40;;;7.37;;
2558;SDS011;1289;53.488;10.006;2024-02-14T06:35:53;9.33;;;7.47;;
2558;SDS011;1289;53.488;10.006;2024-02-14T06:38:19;8.30;;;7.57;;
2558;SDS011;1289;53.488;10.006;2024-02-14T06:40:48;9.33;;;8.30;;
2558;SDS011;1289;53.488;10.006;2024-02-14T06:43:14;7.83;;;7.13;;
2558;SDS011;1289;53.488;10.006;2024-02-14T06:45:41;8.43;;;7.63;;
2558;SDS011;1289;53.488;10.006;2024-02-14T06:48:08;11.17;;;7.10;;
2558;SDS011;1289;53.488;10.006;2024-02-14T06:50:35;7.97;;;7.27;;
2558;SDS011;1289;53.488;10.006;2024-02-14T06:53:02;9.03;;;7.60;;
2558;SDS011;1289;53.488;10.006;2024-02-14T06:55:28;8.73;;;7.33;;
2558;SDS011;1289;53.488;10.006;2024-02-14T06:57:58;8.70;;;7.80;;
2558;SDS011;1289;53.488;10.006;2024-02-14T07:00:25;8.20;;;7.50;;
2558;SDS011;1289;53.488;10.006;2024-02-14T07:02:53;8.63;;;7.80;;
2558;SDS011;1289;53.488;10.006;2024-02-14T07:05:19;8.70;;;7.80;;
2558;SDS011;1289;53.488;10.006;2024-02-14T07:07:46;8.27;;;7.57;;
2558;SDS011;1289;53.488;10.006;2024-02-14T07:10:12;10.43;;;9.40;;
2558;SDS011;1289;53.488;10.006;2024-02-14T07:12:39;8.50;;;7.70;;
2558;SDS011;1289;53.488;10.006;2024-02-14T07:15:07;8.57;;;7.77;;
2558;SDS011;1289;53.488;10.006;2024-02-14T07:17:34;11.37;;;8.73;;
2558;SDS011;1289;53.488;10.006;2024-02-14T07:20:01;8.63;;;7.83;;
2558;SDS011;1289;53.488;10.006;2024-02-14T07:22:28;9.20;;;8.30;;
2558;SDS011;1289;53.488;10.006;2024-02-14T07:24:55;8.70;;;7.90;;
2558;SDS011;1289;53.488;10.006;2024-02-14T07:27:22;11.83;;;9.20;;
2558;SDS011;1289;53.488;10.006;2024-02-14T07:29:49;8.77;;;7.50;;
2558;SDS011;1289;53.488;10.006;2024-02-14T07:32:17;11.43;;;9.40;;
2558;SDS011;1289;53.488;10.006;2024-02-14T07:34:43;9.57;;;8.63;;
2558;SDS011;1289;53.488;10.006;2024-02-14T07:37:10;9.97;;;9.10;;
2558;SDS011;1289;53.488;10.006;2024-02-14T07:39:36;9.23;;;8.13;;
2558;SDS011;1289;53.488;10.006;2024-02-14T07:42:03;9.10;;;8.20;;
2558;SDS011;1289;53.488;10.006;2024-02-14T07:44:30;8.60;;;7.43;;
2558;SDS011;1289;53.488;10.006;2024-02-14T07:46:57;10.97;;;7.53;;
2558;SDS011;1289;53.488;10.006;2024-02-14T07:49:25;9.00;;;8.10;;
2558;SDS011;1289;53.488;10.006;2024-02-14T07:51:51;8.27;;;7.57;;
2558;SDS011;1289;53.488;10.006;2024-02-14T07:54:18;8.73;;;7.70;;
2558;SDS011;1289;53.488;10.006;2024-02-14T07:56:45;8.63;;;7.70;;
2558;SDS011;1289;53.488;10.006;2024-02-14T07:59:12;9.17;;;8.33;;
2558;SDS011;1289;53.488;10.006;2024-02-14T08:01:38;9.20;;;8.30;;
2558;SDS011;1289;53.488;10.006;2024-02-14T08:04:05;8.57;;;7.73;;
2558;SDS011;1289;53.488;10.006;2024-02-14T08:06:33;8.23;;;7.53;;
2558;SDS011;1289;53.488;10.006;2024-02-14T08:09:00;17.10;;;8.63;;
2558;SDS011;1289;53.488;10.006;2024-02-14T08:11:31;8.50;;;7.70;;
2558;SDS011;1289;53.488;10.006;2024-02-14T08:13:58;9.17;;;8.30;;
2558;SDS011;1289;53.488;10.006;2024-02-14T08:16:25;8.83;;;8.07;;
2558;SDS011;1289;53.488;10.006;2024-02-14T08:18:51;9.17;;;8.33;;
2558;SDS011;1289;53.488;10.006;2024-02-14T08:21:27;8.83;;;8.13;;
2558;SDS011;1289;53.488;10.006;2024-02-14T08:23:55;9.33;;;8.43;;
2558;SDS011;1289;53.488;10.006;2024-02-14T08:26:24;10.87;;;8.77;;
2558;SDS011;1289;53.488;10.006;2024-02-14T08:28:50;10.73;;;7.97;;
2558;SDS011;1289;53.488;10.006;2024-02-14T08:31:17;8.00;;;7.30;;
2558;SDS011;1289;53.488;10.006;2024-02-14T08:33:43;9.03;;;8.13;;
2558;SDS011;1289;53.488;10.006;2024-02-14T08:36:10;8.03;;;7.33;;
2558;SDS011;1289;53.488;10.006;2024-02-14T08:38:36;8.20;;;7.37;;
2558;SDS011;1289;53.488;10.006;2024-02-14T08:41:04;9.13;;;8.23;;
2558;SDS011;1289;53.488;10.006;2024-02-14T08:43:33;7.70;;;6.90;;
2558;SDS011;1289;53.488;10.006;2024-02-14T08:45:59;8.70;;;7.90;;
2558;SDS011;1289;53.488;10.006;2024-02-14T08:48:26;8.07;;;7.30;;
2558;SDS011;1289;53.488;10.006;2024-02-14T08:50:55;8.80;;;8.00;;
2558;SDS011;1289;53.488;10.006;2024-02-14T08:53:21;8.00;;;7.30;;
2558;SDS011;1289;53.488;10.006;2024-02-14T08:55:48;10.33;;;8.07;;
2558;SDS011;1289;53.488;10.006;2024-02-14T08:58:16;8.30;;;7.50;;
2558;SDS011;1289;53.488;10.006;2024-02-14T09:00:42;8.47;;;7.20;;
2558;SDS011;1289;53.488;10.006;2024-02-14T09:03:09;7.27;;;6.60;;
2558;SDS011;1289;53.488;10.006;2024-02-14T09:05:35;10.10;;;8.40;;
2558;SDS011;1289;53.488;10.006;2024-02-14T09:08:03;11.00;;;7.43;;
2558;SDS011;1289;53.488;10.006;2024-02-14T09:10:30;7.43;;;6.60;;
2558;SDS011;1289;53.488;10.006;2024-02-14T09:12:57;6.77;;;6.17;;
2558;SDS011;1289;53.488;10.006;2024-02-14T09:15:25;7.40;;;6.80;;
2558;SDS011;1289;53.488;10.006;2024-02-14T09:17:51;7.20;;;6.60;;
2558;SDS011;1289;53.488;10.006;2024-02-14T09:20:18;7.70;;;7.00;;
2558;SDS011;1289;53.488;10.006;2024-02-14T09:22:45;6.23;;;5.70;;
2558;SDS011;1289;53.488;10.006;2024-02-14T09:25:11;6.70;;;6.07;;
2558;SDS011;1289;53.488;10.006;2024-02-14T09:27:39;7.33;;;6.63;;
2558;SDS011;1289;53.488;10.006;2024-02-14T09:30:06;7.67;;;6.97;;
2558;SDS011;1289;53.488;10.006;2024-02-14T09:32:35;7.63;;;6.80;;
2558;SDS011;1289;53.488;10.006;2024-02-14T09:35:01;6.53;;;6.03;;
2558;SDS011;1289;53.488;10.006;2024-02-14T09:37:29;7.47;;;5.90;;
2558;SDS011;1289;53.488;10.006;2024-02-14T09:39:56;7.43;;;6.83;;
2558;SDS011;1289;53.488;10.006;2024-02-14T09:42:26;6.70;;;6.03;;
2558;SDS011;1289;53.488;10.006;2024-02-14T09:45:02;6.30;;;5.80;;
2558;SDS011;1289;53.488;10.006;2024-02-14T09:47:30;6.90;;;6.20;;
2558;SDS011;1289;53.488;10.006;2024-02-14T09:49:59;6.60;;;6.00;;
2558;SDS011;1289;53.488;10.006;2024-02-14T09:52:28;7.80;;;7.10;;
2558;SDS011;1289;53.488;10.006;2024-02-14T09:54:54;6.83;;;6.23;;
2558;SDS011;1289;53.488;10.006;2024-02-14T09:57:21;6.80;;;5.77;;
2558;SDS011;1289;53.488;10.006;2024-02-14T09:59:48;5.77;;;5.10;;
2558;SDS011;1289;53.488;10.006;2024-02-14T10:02:15;5.40;;;4.90;;
2558;SDS011;1289;53.488;10.006;2024-02-14T10:04:42;5.47;;;5.07;;
2558;SDS011;1289;53.488;10.006;2024-02-14T10:07:10;4.70;;;4.30;;
2558;SDS011;1289;53.488;10.006;2024-02-14T10:09:40;4.40;;;4.10;;
2558;SDS011;1289;53.488;10.006;2024-02-14T10:12:07;4.70;;;4.30;;
2558;SDS011;1289;53.488;10.006;2024-02-14T10:14:35;5.27;;;4.77;;
2558;SDS011;1289;53.488;10.006;2024-02-14T10:17:02;4.17;;;3.87;;
2558;SDS011;1289;53.488;10.006;2024-02-14T10:19:28;5.50;;;4.00;;
2558;SDS011;1289;53.488;10.006;2024-02-14T10:21:56;4.67;;;4.27;;
2558;SDS011;1289;53.488;10.006;2024-02-14T10:24:25;4.50;;;4.10;;
2558;SDS011;1289;53.488;10.006;2024-02-14T10:26:52;4.20;;;3.90;;
2558;SDS011;1289;53.488;10.006;2024-02-14T10:29:19;4.07;;;3.77;;
2558;SDS011;1289;53.488;10.006;2024-02-14T10:31:47;4.30;;;3.90;;
2558;SDS011;1289;53.488;10.006;2024-02-14T10:34:13;4.00;;;3.70;;
2558;SDS011;1289;53.488;10.006;2024-02-14T10:36:40;4.10;;;3.80;;
2558;SDS011;1289;53.488;10.006;2024-02-14T10:39:09;3.20;;;3.00;;
2558;SDS011;1289;53.488;10.006;2024-02-14T10:41:38;3.73;;;3.53;;
2558;SDS011;1289;53.488;10.006;2024-02-14T10:44:05;4.10;;;3.80;;
2558;SDS011;1289;53.488;10.006;2024-02-14T10:46:31;4.13;;;3.83;;
2558;SDS011;1289;53.488;10.006;2024-02-14T10:49:02;3.83;;;3.53;;
2558;SDS011;1289;53.488;10.006;2024-02-14T10:51:30;5.53;;;3.67;;
2558;SDS011;1289;53.488;10.006;2024-02-14T10:53:57;4.60;;;4.20;;
2558;SDS011;1289;53.488;10.006;2024-02-14T10:56:26;3.60;;;3.40;;
2558;SDS011;1289;53.488;10.006;2024-02-14T10:58:56;4.20;;;3.90;;
2558;SDS011;1289;53.488;10.006;2024-02-14T11:01:24;3.80;;;3.53;;
2558;SDS011;1289;53.488;10.006;2024-02-14T11:03:52;4.30;;;4.00;;
2558;SDS011;1289;53.488;10.006;2024-02-14T11:06:21;4.33;;;4.03;;
2558;SDS011;1289;53.488;10.006;2024-02-14T11:08:57;4.20;;;3.90;;
2558;SDS011;1289;53.488;10.006;2024-02-14T11:11:27;4.40;;;4.10;;
2558;SDS011;1289;53.488;10.006;2024-02-14T11:13:56;4.90;;;4.50;;
2558;SDS011;1289;53.488;10.006;2024-02-14T11:16:23;5.03;;;4.63;;
2558;SDS011;1289;53.488;10.006;2024-02-14T11:18:53;6.40;;;4.43;;
2558;SDS011;1289;53.488;10.006;2024-02-14T11:21:27;5.30;;;4.80;;
2558;SDS011;1289;53.488;10.006;2024-02-14T11:23:55;5.20;;;4.80;;
2558;SDS011;1289;53.488;10.006;2024-02-14T11:26:24;5.50;;;5.00;;
2558;SDS011;1289;53.488;10.006;2024-02-14T11:29:00;5.63;;;5.13;;
2558;SDS011;1289;53.488;10.006;2024-02-14T11:31:31;5.10;;;4.60;;
2558;SDS011;1289;53.488;10.006;2024-02-14T11:34:02;4.57;;;4.27;;
2558;SDS011;1289;53.488;10.006;2024-02-14T11:36:30;5.70;;;5.20;;
2558;SDS011;1289;53.488;10.006;2024-02-14T11:38:58;5.37;;;4.97;;
2558;SDS011;1289;53.488;10.006;2024-02-14T11:41:27;4.87;;;4.47;;
2558;SDS011;1289;53.488;10.006;2024-02-14T11:43:53;5.17;;;4.40;;
2558;SDS011;1289;53.488;10.006;2024-02-14T11:46:21;5.47;;;4.97;;
2558;SDS011;1289;53.488;10.006;2024-02-14T11:48:49;5.00;;;4.47;;
2558;SDS011;1289;53.488;10.006;2024-02-14T11:51:18;4.90;;;4.50;;
2558;SDS011;1289;53.488;10.006;2024-02-14T11:53:44;4.23;;;3.93;;
2558;SDS011;1289;53.488;10.006;2024-02-14T11:56:11;5.00;;;4.60;;
2558;SDS011;1289;53.488;10.006;2024-02-14T11:58:38;5.20;;;4.80;;
2558;SDS011;1289;53.488;10.006;2024-02-14T12:01:04;5.20;;;4.80;;
2558;SDS011;1289;53.488;10.006;2024-02-14T12:03:33;6.93;;;5.23;;
2558;SDS011;1289;53.488;10.006;2024-02-14T12:06:00;5.93;;;5.43;;
2558;SDS011;1289;53.488;10.006;2024-02-14T12:08:28;5.80;;;5.30;;
2558;SDS011;1289;53.488;10.006;2024-02-14T12:10:54;5.80;;;5.30;;
2558;SDS011;1289;53.488;10.006;2024-02-14T12:13:21;6.70;;;6.10;;
2558;SDS011;1289;53.488;10.006;2024-02-14T12:15:48;6.70;;;6.10;;
2558;SDS011;1289;53.488;10.006;2024-02-14T12:18:16;6.40;;;5.80;;
2558;SDS011;1289;53.488;10.006;2024-02-14T12:20:44;7.00;;;6.40;;
2558;SDS011;1289;53.488;10.006;2024-02-14T12:23:13;7.33;;;6.73;;
2558;SDS011;1289;53.488;10.006;2024-02-14T12:25:42;7.63;;;6.93;;
2558;SDS011;1289;53.488;10.006;2024-02-14T12:28:12;7.50;;;6.80;;
2558;SDS011;1289;53.488;10.006;2024-02-14T12:30:43;8.40;;;7.60;;
2558;SDS011;1289;53.488;10.006;2024-02-14T12:33:14;9.07;;;7.40;;
2558;SDS011;1289;53.488;10.006;2024-02-14T12:35:42;8.83;;;8.03;;
2558;SDS011;1289;53.488;10.006;2024-02-14T12:38:11;8.33;;;7.40;;
2558;SDS011;1289;53.488;10.006;2024-02-14T12:40:38;8.30;;;7.30;;
2558;SDS011;1289;53.488;10.006;2024-02-14T12:43:07;10.40;;;8.77;;
2558;SDS011;1289;53.488;10.006;2024-02-14T12:45:34;9.93;;;8.60;;
2558;SDS011;1289;53.488;10.006;2024-02-14T12:48:00;9.33;;;8.03;;
2558;SDS011;1289;53.488;10.006;2024-02-14T12:50:27;12.37;;;9.10;;
2558;SDS011;1289;53.488;10.006;2024-02-14T12:52:53;8.70;;;7.87;;
2558;SDS011;1289;53.488;10.006;2024-02-14T12:55:22;8.60;;;7.77;;
2558;SDS011;1289;53.488;10.006;2024-02-14T12:57:50;7.97;;;7.27;;
2558;SDS011;1289;53.488;10.006;2024-02-14T13:00:17;8.10;;;7.30;;
2558;SDS011;1289;53.488;10.006;2024-02-14T13:02:44;8.70;;;7.00;;
2558;SDS011;1289;53.488;10.006;2024-02-14T13:05:11;8.23;;;7.33;;
2558;SDS011;1289;53.488;10.006;2024-02-14T13:07:38;7.70;;;7.00;;
2558;SDS011;1289;53.488;10.006;2024-02-14T13:10:05;7.63;;;6.93;;
2558;SDS011;1289;53.488;10.006;2024-02-14T13:12:34;7.37;;;6.70;;
2558;SDS011;1289;53.488;10.006;2024-02-14T13:15:01;7.37;;;6.67;;
2558;SDS011;1289;53.488;10.006;2024-02-14T13:17:28;7.57;;;6.70;;
2558;SDS011;1289;53.488;10.006;2024-02-14T13:19:55;6.80;;;6.20;;
2558;SDS011;1289;53.488;10.006;2024-02-14T13:22:22;7.40;;;6.60;;
2558;SDS011;1289;53.488;10.006;2024-02-14T13:24:48;7.97;;;7.27;;
2558;SDS011;1289;53.488;10.006;2024-02-14T13:27:15;6.87;;;6.17;;
2558;SDS011;1289;53.488;10.006;2024-02-14T13:29:43;7.30;;;6.60;;
2558;SDS011;1289;53.488;10.006;2024-02-14T13:32:10;7.70;;;7.00;;
2558;SDS011;1289;53.488;10.006;2024-02-14T13:34:36;8.10;;;7.30;;
2558;SDS011;1289;53.488;10.006;2024-02-14T13:37:03;6.50;;;5.90;;
2558;SDS011;1289;53.488;10.006;2024-02-14T13:39:30;7.60;;;6.80;;
2558;SDS011;1289;53.488;10.006;2024-02-14T13:41:57;6.83;;;6.20;;
2558;SDS011;1289;53.488;10.006;2024-02-14T13:44:25;6.73;;;6.03;;
2558;SDS011;1289;53.488;10.006;2024-02-14T13:46:53;8.50;;;6.80;;
2558;SDS011;1289;53.488;10.006;2024-02-14T13:49:19;7.97;;;7.27;;
2558;SDS011;1289;53.488;10.006;2024-02-14T13:51:47;7.43;;;6.63;;
2558;SDS011;1289;53.488;10.006;2024-02-14T13:54:15;7.00;;;6.40;;
2558;SDS011;1289;53.488;10.006;2024-02-14T13:56:42;8.10;;;6.47;;
2558;SDS011;1289;53.488;10.006;2024-02-14T13:59:09;7.37;;;6.67;;
2558;SDS011;1289;53.488;10.006;2024-02-14T14:01:36;8.30;;;7.43;;
2558;SDS011;1289;53.488;10.006;2024-02-14T14:04:04;7.57;;;6.90;;
2558;SDS011;1289;53.488;10.006;2024-02-14T14:06:31;7.40;;;6.40;;
2558;SDS011;1289;53.488;10.006;2024-02-14T14:08:58;7.20;;;6.40;;
2558;SDS011;1289;53.488;10.006;2024-02-14T14:11:25;6.60;;;6.00;;
2558;SDS011;1289;53.488;10.006;2024-02-14T14:13:51;6.27;;;5.67;;
2558;SDS011;1289;53.488;10.006;2024-02-14T14:16:19;5.83;;;5.33;;
2558;SDS011;1289;53.488;10.006;2024-02-14T14:18:46;6.30;;;5.70;;
2558;SDS011;1289;53.488;10.006;2024-02-14T14:21:16;5.83;;;5.33;;
2558;SDS011;1289;53.488;10.006;2024-02-14T14:23:42;6.80;;;6.10;;
2558;SDS011;1289;53.488;10.006;2024-02-14T14:26:09;5.80;;;5.40;;
2558;SDS011;1289;53.488;10.006;2024-02-14T14:28:38;6.73;;;6.10;;
2558;SDS011;1289;53.488;10.006;2024-02-14T14:31:05;7.90;;;6.10;;
2558;SDS011;1289;53.488;10.006;2024-02-14T14:33:34;8.93;;;5.83;;
2558;SDS011;1289;53.488;10.006;2024-02-14T14:36:01;7.43;;;6.73;;
2558;SDS011;1289;53.488;10.006;2024-02-14T14:38:29;6.63;;;6.03;;
2558;SDS011;1289;53.488;10.006;2024-02-14T14:40:56;7.30;;;6.20;;
2558;SDS011;1289;53.488;10.006;2024-02-14T14:43:25;7.10;;;6.47;;
2558;SDS011;1289;53.488;10.006;2024-02-14T14:45:53;7.50;;;6.77;;
2558;SDS011;1289;53.488;10.006;2024-02-14T14:48:22;10.30;;;7.70;;
2558;SDS011;1289;53.488;10.006;2024-02-14T14:50:48;7.20;;;6.50;;
2558;SDS011;1289;53.488;10.006;2024-02-14T14:53:15;7.87;;;7.07;;
2558;SDS011;1289;53.488;10.006;2024-02-14T14:55:52;6.73;;;6.13;;
2558;SDS011;1289;53.488;10.006;2024-02-14T14:58:21;7.30;;;6.60;;
2558;SDS011;1289;53.488;10.006;2024-02-14T15:00:48;6.80;;;6.30;;